createdAt,value
2019-03-04T00:00:16.751Z,3.27
2019-03-04T00:02:43.626Z,3.00
2019-03-04T00:05:10.530Z,3.00
2019-03-04T00:07:37.373Z,3.17
2019-03-04T00:10:04.484Z,2.87
2019-03-04T00:12:31.314Z,3.40
2019-03-04T00:14:58.131Z,2.90
2019-03-04T00:17:25.243Z,3.27
2019-03-04T00:19:52.066Z,3.03
2019-03-04T00:22:18.869Z,3.13
2019-03-04T00:24:46.062Z,2.93
2019-03-04T00:27:12.885Z,3.07
2019-03-04T00:29:39.794Z,2.67
2019-03-04T00:32:06.877Z,2.53
2019-03-04T00:34:33.994Z,2.57
2019-03-04T00:37:00.933Z,2.90
2019-03-04T00:39:27.901Z,3.27
2019-03-04T00:41:54.706Z,3.30
2019-03-04T00:44:21.537Z,3.50
2019-03-04T00:46:48.433Z,3.30
2019-03-04T00:49:15.368Z,4.07
2019-03-04T00:51:42.343Z,3.80
2019-03-04T00:54:09.290Z,4.57
2019-03-04T00:56:36.139Z,4.17
2019-03-04T00:59:03.581Z,3.83
2019-03-04T01:01:30.710Z,3.77
2019-03-04T01:03:57.619Z,3.07
2019-03-04T01:06:24.935Z,2.40
2019-03-04T01:08:51.801Z,2.40
2019-03-04T01:11:38.253Z,2.37
2019-03-04T01:14:05.335Z,2.30
2019-03-04T01:16:32.301Z,2.10
2019-03-04T01:18:59.134Z,1.80
2019-03-04T01:21:26.011Z,1.80
2019-03-04T01:23:52.966Z,1.80
2019-03-04T01:26:19.952Z,1.70
2019-03-04T01:28:46.782Z,1.97
2019-03-04T01:31:13.636Z,1.73
2019-03-04T01:33:40.452Z,1.70
2019-03-04T01:36:07.420Z,2.10
2019-03-04T01:38:34.223Z,1.83
2019-03-04T01:41:01.057Z,2.60
2019-03-04T01:43:28.013Z,2.93
2019-03-04T01:45:54.835Z,3.23
2019-03-04T01:48:21.629Z,2.97
2019-03-04T01:50:48.522Z,3.40
2019-03-04T01:53:15.487Z,3.83
2019-03-04T01:55:42.534Z,3.63
2019-03-04T01:58:09.523Z,4.33
2019-03-04T02:00:36.549Z,4.33
2019-03-04T02:03:03.584Z,4.57
2019-03-04T02:05:30.556Z,4.97
2019-03-04T02:07:57.483Z,5.03
2019-03-04T02:10:24.406Z,5.30
2019-03-04T02:12:52.091Z,4.83
2019-03-04T02:15:19.339Z,4.90
2019-03-04T02:17:46.874Z,5.70
2019-03-04T02:20:15.048Z,5.13
2019-03-04T02:22:42.182Z,5.90
2019-03-04T02:25:11.151Z,5.10
2019-03-04T02:27:38.864Z,6.70
2019-03-04T02:30:10.473Z,6.30
2019-03-04T02:32:37.383Z,7.20
2019-03-04T02:35:04.462Z,7.43
2019-03-04T02:37:31.277Z,8.47
2019-03-04T02:39:58.191Z,9.27
2019-03-04T02:42:25.218Z,8.83
2019-03-04T02:44:52.089Z,9.33
2019-03-04T02:47:19.138Z,9.33
2019-03-04T02:49:46.109Z,9.53
2019-03-04T02:52:13.043Z,8.93
2019-03-04T02:54:39.881Z,9.13
2019-03-04T02:57:06.987Z,7.97
2019-03-04T02:59:33.926Z,7.83
2019-03-04T03:02:01.018Z,7.17
2019-03-04T03:04:27.886Z,8.07
2019-03-04T03:06:54.722Z,8.57
2019-03-04T03:09:21.844Z,10.20
2019-03-04T03:11:48.714Z,15.20
2019-03-04T03:14:15.631Z,20.20
2019-03-04T03:16:42.476Z,21.90
2019-03-04T03:19:09.543Z,24.97
2019-03-04T03:21:36.487Z,27.70
2019-03-04T03:24:04.718Z,29.27
2019-03-04T03:26:31.895Z,32.53
2019-03-04T03:28:58.791Z,34.23
2019-03-04T03:31:25.754Z,36.20
2019-03-04T03:33:52.775Z,36.57
2019-03-04T03:36:19.808Z,38.90
2019-03-04T03:38:46.730Z,41.73
2019-03-04T03:41:13.680Z,42.00
2019-03-04T03:43:40.515Z,43.10
2019-03-04T03:46:07.534Z,42.87
2019-03-04T03:48:34.387Z,40.83
2019-03-04T03:51:01.311Z,43.03
2019-03-04T03:53:28.337Z,40.43
2019-03-04T03:55:55.311Z,41.50
2019-03-04T03:58:25.005Z,42.77
2019-03-04T04:00:51.081Z,40.13
2019-03-04T04:03:18.120Z,43.00
2019-03-04T04:05:45.066Z,39.50
2019-03-04T04:08:12.043Z,41.17
2019-03-04T04:10:39.042Z,38.33
2019-03-04T04:13:06.073Z,37.43
2019-03-04T04:15:32.989Z,36.83
2019-03-04T04:18:00.162Z,36.60
2019-03-04T04:20:27.063Z,38.30
2019-03-04T04:22:53.873Z,38.07
2019-03-04T04:25:20.740Z,37.70
2019-03-04T04:27:47.655Z,37.33
2019-03-04T04:30:16.876Z,36.60
2019-03-04T04:32:43.846Z,34.77
2019-03-04T04:35:10.870Z,36.50
2019-03-04T04:37:37.907Z,35.60
2019-03-04T04:40:05.213Z,35.57
2019-03-04T04:42:32.055Z,36.00
2019-03-04T04:44:59.180Z,33.30
2019-03-04T04:47:26.153Z,33.20
2019-03-04T04:49:53.187Z,33.13
2019-03-04T04:52:20.093Z,34.40
2019-03-04T04:54:46.965Z,31.03
2019-03-04T04:57:13.867Z,32.47
2019-03-04T04:59:40.898Z,34.67
2019-03-04T05:02:07.994Z,32.50
2019-03-04T05:04:34.973Z,32.50
2019-03-04T05:07:01.981Z,32.53
2019-03-04T05:09:28.823Z,31.47
2019-03-04T05:11:55.664Z,30.07
2019-03-04T05:14:22.702Z,33.23
2019-03-04T05:16:49.655Z,30.73
2019-03-04T05:19:36.114Z,30.53
2019-03-04T05:22:03.065Z,31.57
2019-03-04T05:24:29.998Z,31.80
2019-03-04T05:26:57.026Z,29.80
2019-03-04T05:29:24.002Z,29.90
2019-03-04T05:31:50.807Z,30.13
2019-03-04T05:34:17.617Z,30.63
2019-03-04T05:36:46.811Z,31.80
2019-03-04T05:39:13.650Z,30.33
2019-03-04T05:41:40.459Z,30.27
2019-03-04T05:44:07.430Z,28.17
2019-03-04T05:46:34.495Z,30.50
2019-03-04T05:49:01.419Z,29.10
2019-03-04T05:51:28.274Z,29.47
2019-03-04T05:53:55.106Z,29.77
2019-03-04T05:56:22.154Z,30.23
2019-03-04T05:58:49.097Z,29.33
2019-03-04T06:01:27.698Z,27.20
2019-03-04T06:03:56.720Z,27.43
2019-03-04T06:06:42.014Z,25.40
2019-03-04T06:09:10.601Z,20.37
2019-03-04T06:11:37.515Z,21.47
2019-03-04T06:14:05.496Z,17.97
2019-03-04T06:16:32.367Z,16.67
2019-03-04T06:18:59.292Z,15.93
2019-03-04T06:21:26.102Z,15.27
2019-03-04T06:23:53.071Z,15.47
2019-03-04T06:26:19.993Z,14.53
2019-03-04T06:28:46.787Z,14.10
2019-03-04T06:31:13.654Z,17.10
2019-03-04T06:33:40.475Z,15.87
2019-03-04T06:36:07.383Z,12.70
2019-03-04T06:38:34.215Z,13.37
2019-03-04T06:41:02.729Z,13.50
2019-03-04T06:43:29.625Z,13.93
2019-03-04T06:45:56.495Z,13.30
2019-03-04T06:48:23.430Z,12.27
2019-03-04T06:50:52.102Z,11.97
2019-03-04T06:53:32.178Z,11.97
2019-03-04T06:56:35.323Z,12.20
2019-03-04T06:59:09.461Z,11.87
2019-03-04T07:01:43.555Z,12.23
2019-03-04T07:04:21.076Z,11.93
2019-03-04T07:06:47.892Z,11.63
2019-03-04T07:09:18.626Z,11.13
2019-03-04T07:11:52.803Z,11.47
2019-03-04T07:14:19.815Z,10.83
2019-03-04T07:16:50.690Z,11.93
2019-03-04T07:19:19.153Z,9.47
2019-03-04T07:21:46.343Z,9.10
2019-03-04T07:24:13.466Z,8.57
2019-03-04T07:26:40.342Z,7.50
2019-03-04T07:29:07.336Z,7.93
2019-03-04T07:31:34.262Z,7.83
2019-03-04T07:34:01.295Z,7.50
2019-03-04T07:36:28.421Z,7.67
2019-03-04T07:38:57.298Z,7.37
2019-03-04T07:41:25.728Z,8.23
2019-03-04T07:43:52.682Z,9.10
2019-03-04T07:46:19.975Z,8.60
2019-03-04T07:48:47.042Z,10.63
2019-03-04T07:51:14.621Z,10.57
2019-03-04T07:53:46.394Z,10.60
2019-03-04T07:56:10.629Z,10.30
2019-03-04T07:58:37.681Z,11.10
2019-03-04T08:01:04.871Z,11.40
2019-03-04T08:03:31.991Z,12.43
2019-03-04T08:05:58.917Z,11.50
2019-03-04T08:08:25.955Z,11.73
2019-03-04T08:11:40.603Z,12.20
2019-03-04T08:14:08.036Z,11.30
2019-03-04T08:16:36.266Z,10.83
2019-03-04T08:19:03.632Z,10.33
2019-03-04T08:21:30.561Z,10.60
2019-03-04T08:23:57.482Z,11.03
2019-03-04T08:26:24.530Z,10.03
2019-03-04T08:28:51.630Z,10.20
2019-03-04T08:31:18.557Z,10.40
2019-03-04T08:33:45.384Z,10.87
2019-03-04T08:36:12.221Z,10.33
2019-03-04T08:38:39.020Z,9.03
2019-03-04T08:41:06.042Z,10.17
2019-03-04T08:43:33.046Z,9.50
2019-03-04T08:46:00.037Z,9.03
2019-03-04T08:48:26.985Z,9.30
2019-03-04T08:50:53.770Z,10.47
2019-03-04T08:53:20.619Z,8.80
2019-03-04T08:55:47.528Z,8.20
2019-03-04T08:58:14.486Z,8.23
2019-03-04T09:00:41.421Z,8.20
2019-03-04T09:03:08.584Z,8.30
2019-03-04T09:05:35.663Z,8.00
2019-03-04T09:08:02.829Z,7.73
2019-03-04T09:10:29.858Z,7.30
2019-03-04T09:12:56.883Z,7.00
2019-03-04T09:15:24.039Z,5.87
2019-03-04T09:17:53.534Z,6.57
2019-03-04T09:20:21.087Z,6.00
2019-03-04T09:22:48.016Z,5.67
2019-03-04T09:25:41.990Z,6.03
2019-03-04T09:28:08.896Z,6.13
2019-03-04T09:30:35.911Z,6.03
2019-03-04T09:33:02.992Z,6.10
2019-03-04T09:35:32.429Z,6.63
2019-03-04T09:37:58.917Z,5.97
2019-03-04T09:40:27.281Z,6.30
2019-03-04T09:42:54.287Z,5.90
2019-03-04T09:45:21.238Z,5.50
2019-03-04T09:47:48.310Z,5.00
2019-03-04T09:50:16.683Z,5.00
2019-03-04T09:52:43.702Z,5.10
2019-03-04T09:55:11.427Z,5.63
2019-03-04T09:57:38.344Z,5.17
2019-03-04T10:00:24.705Z,5.20
2019-03-04T10:02:51.950Z,5.00
2019-03-04T10:05:54.178Z,4.90
2019-03-04T10:09:01.501Z,4.80
2019-03-04T10:11:53.501Z,4.70
2019-03-04T10:15:14.695Z,4.80
2019-03-04T10:18:14.894Z,4.30
2019-03-04T10:21:37.518Z,4.17
2019-03-04T10:24:58.426Z,4.63
2019-03-04T10:28:09.154Z,3.87
2019-03-04T10:31:00.907Z,4.00
2019-03-04T10:34:05.977Z,3.90
2019-03-04T10:36:59.655Z,4.03
2019-03-04T10:39:45.069Z,4.37
2019-03-04T10:42:49.809Z,3.60
2019-03-04T10:45:54.779Z,3.10
2019-03-04T10:48:21.652Z,3.50
2019-03-04T10:50:48.489Z,3.83
2019-03-04T10:53:15.543Z,4.60
2019-03-04T10:55:42.726Z,5.50
2019-03-04T10:58:09.791Z,5.10
2019-03-04T11:00:36.838Z,5.53
2019-03-04T11:03:04.395Z,5.53
2019-03-04T11:05:31.527Z,5.47
2019-03-04T11:07:58.459Z,5.90
2019-03-04T11:10:25.556Z,5.40
2019-03-04T11:12:52.915Z,6.77
2019-03-04T11:15:23.182Z,5.13
2019-03-04T11:17:50.372Z,5.00
2019-03-04T11:20:17.700Z,5.53
2019-03-04T11:22:44.732Z,4.10
2019-03-04T11:25:12.609Z,4.10
2019-03-04T11:27:39.834Z,4.40
2019-03-04T11:30:07.041Z,4.47
2019-03-04T11:32:33.980Z,4.67
2019-03-04T11:35:00.800Z,3.73
2019-03-04T11:37:27.818Z,4.10
2019-03-04T11:40:04.719Z,4.30
2019-03-04T11:42:31.953Z,3.40
2019-03-04T11:44:58.980Z,4.03
2019-03-04T11:47:26.570Z,3.70
2019-03-04T11:49:53.611Z,3.50
2019-03-04T11:52:20.521Z,3.53
2019-03-04T11:54:47.503Z,3.60
2019-03-04T11:57:14.451Z,2.97
2019-03-04T11:59:41.489Z,3.33
2019-03-04T12:02:15.045Z,3.13
2019-03-04T12:04:41.963Z,3.50
2019-03-04T12:07:08.882Z,3.07
2019-03-04T12:09:35.799Z,2.00
2019-03-04T12:12:02.854Z,0.80
2019-03-04T12:14:29.876Z,0.63
2019-03-04T12:16:57.016Z,0.77
2019-03-04T12:19:24.083Z,1.00
2019-03-04T12:21:51.121Z,1.00
2019-03-04T12:24:18.073Z,0.90
2019-03-04T12:26:44.971Z,1.17
2019-03-04T12:29:11.862Z,1.60
2019-03-04T12:31:48.470Z,1.10
2019-03-04T12:34:24.640Z,0.93
2019-03-04T12:36:50.429Z,1.20
2019-03-04T12:39:17.279Z,1.10
2019-03-04T12:41:44.224Z,1.87
2019-03-04T12:44:11.088Z,1.20
2019-03-04T12:46:37.903Z,1.57
2019-03-04T12:49:04.725Z,1.30
2019-03-04T12:51:31.566Z,2.47
2019-03-04T12:53:58.374Z,1.17
2019-03-04T12:56:25.274Z,1.30
2019-03-04T12:58:52.131Z,0.90
2019-03-04T13:01:19.130Z,1.47
2019-03-04T13:03:46.029Z,1.27
2019-03-04T13:06:12.979Z,0.97
2019-03-04T13:08:40.087Z,0.87
2019-03-04T13:11:07.493Z,0.80
2019-03-04T13:13:34.462Z,0.80
2019-03-04T13:16:01.745Z,0.90
2019-03-04T13:18:28.795Z,0.60
2019-03-04T13:20:55.664Z,0.60
2019-03-04T13:23:22.674Z,0.70
2019-03-04T13:25:49.547Z,0.70
2019-03-04T13:28:16.481Z,0.50
2019-03-04T13:30:43.539Z,0.70
2019-03-04T13:33:10.580Z,0.50
2019-03-04T13:35:37.929Z,0.50
2019-03-04T13:38:05.086Z,1.00
2019-03-04T13:40:32.194Z,0.73
2019-03-04T13:42:59.234Z,0.80
2019-03-04T13:45:26.374Z,0.90
2019-03-04T13:47:53.278Z,0.90
2019-03-04T13:50:20.935Z,0.93
2019-03-04T13:52:47.833Z,0.87
2019-03-04T13:55:15.376Z,1.20
2019-03-04T13:57:42.370Z,1.80
2019-03-04T14:00:11.886Z,1.10
2019-03-04T14:02:38.697Z,1.00
2019-03-04T14:05:06.541Z,1.10
2019-03-04T14:07:33.554Z,1.17
2019-03-04T14:10:00.477Z,1.63
2019-03-04T14:12:27.322Z,1.40
2019-03-04T14:14:54.225Z,1.33
2019-03-04T14:17:21.142Z,0.90
2019-03-04T14:19:48.931Z,1.20
2019-03-04T14:22:16.290Z,0.90
2019-03-04T14:24:43.135Z,1.60
2019-03-04T14:27:10.084Z,1.03
2019-03-04T14:29:37.034Z,0.90
2019-03-04T14:32:03.947Z,1.67
2019-03-04T14:34:30.914Z,1.30
2019-03-04T14:36:57.766Z,1.50
2019-03-04T14:39:24.584Z,1.40
2019-03-04T14:41:51.618Z,1.60
2019-03-04T14:44:18.575Z,1.83
2019-03-04T14:46:45.586Z,1.70
2019-03-04T14:49:12.634Z,1.83
2019-03-04T14:51:39.549Z,1.57
2019-03-04T14:54:08.511Z,1.50
2019-03-04T14:56:35.306Z,1.13
2019-03-04T14:59:10.600Z,1.10
2019-03-04T15:01:31.106Z,0.70
2019-03-04T15:03:58.062Z,0.80
2019-03-04T15:06:24.963Z,0.87
2019-03-04T15:08:51.885Z,1.10
2019-03-04T15:11:18.950Z,0.93
2019-03-04T15:13:45.770Z,1.03
2019-03-04T15:16:12.591Z,0.70
2019-03-04T15:18:39.532Z,0.60
2019-03-04T15:21:06.930Z,0.90
2019-03-04T15:23:33.806Z,1.03
2019-03-04T15:26:00.869Z,0.80
2019-03-04T15:28:27.667Z,1.20
2019-03-04T15:30:55.777Z,0.70
2019-03-04T15:33:22.842Z,1.20
2019-03-04T15:35:49.834Z,1.20
2019-03-04T15:38:16.776Z,1.53
2019-03-04T15:40:43.814Z,1.10
2019-03-04T15:43:10.815Z,1.40
2019-03-04T15:45:40.791Z,1.70
2019-03-04T15:48:07.858Z,1.13
2019-03-04T15:50:34.869Z,1.50
2019-03-04T15:53:01.759Z,1.70
2019-03-04T15:55:28.824Z,1.90
2019-03-04T15:57:55.846Z,1.77
2019-03-04T16:00:22.953Z,1.57
2019-03-04T16:02:50.001Z,1.63
2019-03-04T16:05:17.169Z,1.67
2019-03-04T16:07:44.211Z,1.83
2019-03-04T16:10:12.622Z,1.63
2019-03-04T16:12:40.364Z,2.07
2019-03-04T16:15:09.465Z,1.60
2019-03-04T16:17:36.520Z,1.60
2019-03-04T16:20:03.762Z,1.57
2019-03-04T16:22:30.665Z,1.60
2019-03-04T16:24:57.707Z,1.50
2019-03-04T16:27:25.457Z,1.57
2019-03-04T16:29:52.362Z,2.13
2019-03-04T16:32:19.386Z,2.00
2019-03-04T16:34:46.452Z,1.70
2019-03-04T16:37:13.446Z,1.57
2019-03-04T16:39:40.501Z,2.07
2019-03-04T16:42:07.614Z,1.90
2019-03-04T16:44:34.670Z,1.83
2019-03-04T16:47:01.605Z,1.70
2019-03-04T16:49:28.445Z,2.03
2019-03-04T16:51:55.250Z,1.70
2019-03-04T16:54:22.195Z,1.43
2019-03-04T16:56:49.022Z,2.10
2019-03-04T16:59:15.926Z,2.07
2019-03-04T17:01:42.883Z,1.77
2019-03-04T17:04:09.711Z,1.67
2019-03-04T17:06:36.640Z,1.60
2019-03-04T17:09:18.694Z,1.67
2019-03-04T17:11:45.611Z,2.40
2019-03-04T17:14:12.426Z,1.77
2019-03-04T17:16:39.252Z,1.90
2019-03-04T17:19:06.214Z,1.70
2019-03-04T17:21:33.243Z,1.67
2019-03-04T17:24:00.097Z,2.43
2019-03-04T17:26:27.003Z,1.67
2019-03-04T17:28:53.817Z,1.40
2019-03-04T17:31:20.767Z,2.17
2019-03-04T17:33:47.661Z,1.87
2019-03-04T17:36:14.485Z,2.37
2019-03-04T17:38:41.637Z,2.30
2019-03-04T17:41:08.565Z,2.30
2019-03-04T17:43:35.488Z,1.83
2019-03-04T17:46:02.511Z,2.70
2019-03-04T17:48:29.522Z,1.83
2019-03-04T17:50:56.330Z,1.80
2019-03-04T17:53:23.279Z,1.90
2019-03-04T17:55:50.322Z,1.90
2019-03-04T17:58:17.375Z,1.53
2019-03-04T18:00:48.427Z,2.10
2019-03-04T18:03:15.394Z,1.53
2019-03-04T18:05:42.441Z,1.50
2019-03-04T18:08:09.494Z,1.50
2019-03-04T18:10:36.477Z,1.97
2019-03-04T18:13:03.983Z,1.50
2019-03-04T18:15:31.081Z,1.60
2019-03-04T18:17:58.050Z,2.00
2019-03-04T18:20:34.087Z,1.87
2019-03-04T18:22:54.196Z,2.10
2019-03-04T18:25:54.334Z,1.93
2019-03-04T18:28:29.201Z,2.17
2019-03-04T18:31:21.299Z,2.17
2019-03-04T18:34:33.529Z,2.27
2019-03-04T18:37:42.410Z,2.30
2019-03-04T18:40:39.830Z,2.50
2019-03-04T18:43:22.456Z,2.40
2019-03-04T18:46:46.737Z,2.47
2019-03-04T18:49:13.747Z,2.50
2019-03-04T18:51:40.789Z,2.20
2019-03-04T18:54:13.426Z,1.70
2019-03-04T18:56:40.465Z,1.80
2019-03-04T18:59:08.002Z,1.90
2019-03-04T19:01:35.132Z,1.43
2019-03-04T19:04:02.229Z,1.47
2019-03-04T19:06:29.311Z,1.53
2019-03-04T19:08:56.617Z,1.80
2019-03-04T19:11:23.864Z,1.60
2019-03-04T19:13:50.974Z,1.33
2019-03-04T19:16:18.021Z,1.50
2019-03-04T19:18:44.933Z,1.57
2019-03-04T19:21:11.845Z,1.53
2019-03-04T19:23:38.713Z,1.70
2019-03-04T19:26:05.757Z,1.73
2019-03-04T19:28:32.824Z,1.77
2019-03-04T19:30:59.843Z,2.00
2019-03-04T19:33:26.874Z,1.90
2019-03-04T19:35:53.668Z,1.93
2019-03-04T19:38:20.714Z,1.80
2019-03-04T19:40:47.626Z,1.70
2019-03-04T19:43:14.650Z,1.90
2019-03-04T19:45:41.606Z,2.20
2019-03-04T19:48:08.439Z,1.70
2019-03-04T19:50:35.570Z,2.57
2019-03-04T19:53:02.629Z,1.40
2019-03-04T19:55:29.513Z,2.10
2019-03-04T19:57:56.414Z,1.87
2019-03-04T20:00:25.166Z,1.70
2019-03-04T20:02:52.336Z,1.40
2019-03-04T20:05:19.668Z,1.90
2019-03-04T20:07:47.060Z,1.80
2019-03-04T20:10:15.168Z,2.90
2019-03-04T20:12:42.078Z,1.73
2019-03-04T20:15:11.553Z,1.73
2019-03-04T20:17:38.461Z,1.83
2019-03-04T20:20:07.547Z,1.73
2019-03-04T20:22:34.600Z,2.00
2019-03-04T20:25:01.638Z,1.60
2019-03-04T20:27:28.541Z,2.07
2019-03-04T20:29:55.407Z,1.50
2019-03-04T20:32:22.726Z,1.53
2019-03-04T20:34:49.528Z,1.67
2019-03-04T20:37:16.383Z,1.60
2019-03-04T20:39:43.186Z,1.70
2019-03-04T20:42:10.100Z,1.70
2019-03-04T20:44:37.031Z,1.70
2019-03-04T20:47:04.084Z,1.67
2019-03-04T20:49:30.877Z,1.60
2019-03-04T20:51:57.711Z,2.20
2019-03-04T20:54:24.617Z,1.60
2019-03-04T20:56:51.560Z,2.27
2019-03-04T20:59:18.480Z,1.73
2019-03-04T21:01:45.583Z,2.00
2019-03-04T21:04:12.718Z,1.80
2019-03-04T21:06:39.889Z,2.87
2019-03-04T21:09:08.796Z,2.70
2019-03-04T21:11:35.885Z,2.30
2019-03-04T21:14:03.042Z,2.13
2019-03-04T21:16:30.098Z,2.37
2019-03-04T21:18:57.005Z,2.20
2019-03-04T21:21:23.955Z,2.53
2019-03-04T21:23:50.893Z,2.23
2019-03-04T21:26:23.525Z,2.73
2019-03-04T21:29:30.499Z,2.43
2019-03-04T21:32:22.332Z,2.23
2019-03-04T21:35:26.642Z,2.53
2019-03-04T21:37:53.766Z,2.87
2019-03-04T21:40:25.811Z,3.33
2019-03-04T21:42:56.414Z,3.20
2019-03-04T21:45:46.187Z,2.57
2019-03-04T21:48:20.386Z,2.97
2019-03-04T21:50:52.069Z,2.90
2019-03-04T21:53:24.006Z,3.10
2019-03-04T21:56:23.998Z,2.80
2019-03-04T21:58:51.070Z,2.60
2019-03-04T22:01:25.776Z,4.07
2019-03-04T22:03:52.771Z,3.00
2019-03-04T22:06:19.809Z,2.60
2019-03-04T22:08:46.627Z,2.90
2019-03-04T22:11:13.564Z,2.03
2019-03-04T22:13:40.722Z,2.40
2019-03-04T22:16:07.718Z,2.30
2019-03-04T22:18:34.634Z,2.37
2019-03-04T22:21:01.717Z,2.33
2019-03-04T22:23:28.615Z,1.90
2019-03-04T22:26:01.811Z,2.67
2019-03-04T22:28:24.498Z,2.07
2019-03-04T22:30:51.424Z,1.83
2019-03-04T22:33:18.433Z,1.93
2019-03-04T22:35:45.631Z,2.77
2019-03-04T22:38:12.623Z,2.10
2019-03-04T22:40:39.445Z,2.20
2019-03-04T22:43:06.493Z,1.83
2019-03-04T22:45:33.405Z,2.30
2019-03-04T22:48:00.316Z,2.20
2019-03-04T22:50:27.685Z,2.13
2019-03-04T22:52:54.789Z,1.53
2019-03-04T22:55:25.143Z,1.50
2019-03-04T22:57:52.220Z,1.77
2019-03-04T23:01:17.803Z,1.50
2019-03-04T23:03:45.605Z,1.60
2019-03-04T23:06:15.990Z,1.40
2019-03-04T23:08:42.790Z,2.17
2019-03-04T23:11:10.051Z,1.67
2019-03-04T23:13:55.972Z,1.60
2019-03-04T23:16:28.082Z,1.50
2019-03-04T23:18:55.024Z,1.60
2019-03-04T23:21:22.030Z,1.47
2019-03-04T23:23:48.973Z,1.77
2019-03-04T23:26:15.974Z,1.87
2019-03-04T23:28:42.790Z,1.70
2019-03-04T23:31:10.153Z,1.93
2019-03-04T23:33:36.951Z,1.50
2019-03-04T23:36:03.851Z,1.57
2019-03-04T23:38:30.898Z,1.30
2019-03-04T23:40:57.810Z,1.10
2019-03-04T23:43:24.810Z,1.10
2019-03-04T23:45:51.654Z,1.00
2019-03-04T23:48:18.455Z,1.10
2019-03-04T23:50:45.271Z,0.80
2019-03-04T23:53:12.218Z,1.37
2019-03-04T23:55:39.172Z,0.90
2019-03-04T23:58:06.087Z,0.80
